Orwell, Ohio
Current Conditions -  °F | °C
As of 1:53 PM on Monday 20 Oct 2014 (Local Time) from KHZY Reporting Station
Scattered Clouds Scattered Clouds  
Wind Chill: 54°   Ceiling: Unl
Heat Index: 54°   Visibility: 10mi
Dew Point: 43°   Wind: 14mph
Humidity: 66%   Direction: 200°SSW
Pressure: 29.87"   Gusts: NA
Location:  41.54°N, 80.87°W
Report Text: KHZY 201753Z AUTO 20012KT 10SM FEW080 SCT110 12/06 A2987 RMK AO2 SLP116 60000 T01220061 10122 20072 58018
Loading
Personal Weather Stations






























Interactive Weather Map
Tropical Storm Tracking
New forecast layout! Learn more

10-Day Weather Forecast

Advertisements
Track Severe Weather on mobile